Time;durP1;ratioP1;P1;durP2;ratioP2;P2;SDS_P1;SDS_P2;PMS_P1;PMS_P2;Temp;Humidity;BMP_temperature;BMP_pressure;BME280_temperature;BME280_humidity;BME280_pressure;Samples;Min_cycle;Max_cycle;Signal;HPM_P1;HPM_P2
2023/10/06 00:01:51;;;;;;;12.45;4.93;;;;;;;16.81;55.11;100314.19;6305141;22;20438;-87
2023/10/06 00:04:18;;;;;;;18.17;4.25;;;;;;;16.67;55.80;100312.84;6305391;22;20006;-86
2023/10/06 00:06:45;;;;;;;14.65;5.65;;;;;;;16.55;55.40;100277.69;6305183;22;20022;-86
2023/10/06 00:09:20;;;;;;;11.95;4.65;;;;;;;16.58;55.75;100311.34;6305663;22;20532;-89
2023/10/06 00:11:46;;;;;;;17.15;5.78;;;;;;;16.35;55.21;100274.75;6305254;22;20084;-86
2023/10/06 00:14:38;;;;;;;10.38;5.13;;;;;;;16.56;55.25;100314.06;6305280;22;19999;-87
2023/10/06 00:16:59;;;;;;;14.35;5.47;;;;;;;16.13;55.70;100274.50;6304963;22;20438;-86
2023/10/06 00:19:31;;;;;;;16.77;6.20;;;;;;;16.34;55.36;100299.63;6305893;22;20007;-86
2023/10/06 00:24:51;;;;;;;14.65;6.07;;;;;;;16.08;55.73;100306.56;6240089;23;20011;-87
2023/10/06 00:27:29;;;;;;;12.27;5.53;;;;;;;15.58;56.26;100269.75;6240498;23;20008;-87
2023/10/06 00:29:56;;;;;;;12.93;5.30;;;;;;;15.79;56.06;100300.28;6240139;23;20058;-86
2023/10/06 00:32:26;;;;;;;12.57;4.68;;;;;;;15.99;56.04;100318.34;6240404;23;20039;-86
2023/10/06 00:34:52;;;;;;;10.52;5.43;;;;;;;15.40;56.58;100233.91;6240082;23;20011;-86
2023/10/06 00:37:23;;;;;;;8.52;4.93;;;;;;;15.51;56.29;100255.75;6239707;23;20004;-86
2023/10/06 00:39:50;;;;;;;14.68;6.65;;;;;;;15.60;56.15;100267.94;6240181;23;20004;-87
2023/10/06 00:42:19;;;;;;;13.93;5.30;;;;;;;15.57;56.01;100289.31;6240354;23;20451;-86
2023/10/06 00:44:46;;;;;;;16.60;5.13;;;;;;;15.57;55.68;100276.00;6240018;23;20071;-86
2023/10/06 00:47:13;;;;;;;14.15;5.30;;;;;;;15.62;55.92;100295.38;6239881;23;20008;-86
2023/10/06 00:49:43;;;;;;;11.73;4.43;;;;;;;15.50;56.69;100271.75;6240052;23;20048;-86
2023/10/06 00:52:11;;;;;;;12.43;5.32;;;;;;;15.44;56.37;100263.94;6239731;23;20008;-87
2023/10/06 00:54:39;;;;;;;14.77;5.53;;;;;;;15.37;56.54;100264.09;6239858;23;20008;-86
2023/10/06 00:57:10;;;;;;;10.15;4.55;;;;;;;15.75;56.64;100309.19;6239648;23;20015;-86
2023/10/06 00:59:36;;;;;;;10.95;4.35;;;;;;;15.15;57.36;100255.81;6240420;23;20003;-86
2023/10/06 01:02:02;;;;;;;13.20;4.55;;;;;;;15.29;57.44;100268.75;6293395;22;20003;-86
2023/10/06 01:04:34;;;;;;;11.57;4.50;;;;;;;15.25;57.96;100271.53;6303806;22;20008;-86
2023/10/06 01:07:00;;;;;;;9.07;4.78;;;;;;;15.20;58.46;100268.97;6304196;22;20068;-86
2023/10/06 01:09:33;;;;;;;14.45;5.15;;;;;;;15.17;58.43;100253.97;6304284;22;20007;-86
2023/10/06 01:11:58;;;;;;;8.38;4.57;;;;;;;15.25;59.18;100266.19;6304494;22;20003;-86
2023/10/06 01:14:27;;;;;;;12.57;6.90;;;;;;;15.16;59.18;100238.94;6304851;22;20037;-86
2023/10/06 01:17:03;;;;;;;8.43;4.28;;;;;;;15.35;59.35;100259.72;6304105;22;20043;-86
2023/10/06 01:19:33;;;;;;;16.38;5.25;;;;;;;15.19;59.63;100253.94;6277429;22;20319;-85
2023/10/06 01:22:13;;;;;;;14.05;5.45;;;;;;;15.13;60.08;100248.78;6276881;22;20465;-86
2023/10/06 01:24:39;;;;;;;8.35;4.72;;;;;;;15.37;59.69;100244.63;6305042;22;20027;-85
2023/10/06 01:27:09;;;;;;;10.43;5.40;;;;;;;15.65;59.31;100281.13;6304015;22;20457;-86
2023/10/06 01:29:35;;;;;;;22.98;4.78;;;;;;;15.48;59.42;100254.97;6304739;22;20010;-85
2023/10/06 01:32:05;;;;;;;12.65;5.15;;;;;;;15.56;59.60;100250.31;6304201;22;20082;-85
2023/10/06 01:34:38;;;;;;;15.45;5.03;;;;;;;15.65;59.44;100255.38;6304905;22;20384;-85
2023/10/06 01:37:07;;;;;;;12.18;5.30;;;;;;;15.52;59.35;100257.53;6304381;22;20013;-85
2023/10/06 01:39:36;;;;;;;17.42;4.93;;;;;;;15.80;59.19;100291.38;6304331;22;20357;-85
2023/10/06 01:45:13;;;;;;;12.20;5.30;;;;;;;15.84;59.36;100285.03;6149942;23;20006;-87
2023/10/06 01:47:38;;;;;;;9.50;5.70;;;;;;;15.51;58.68;100258.41;6150050;23;20005;-87
2023/10/06 01:50:04;;;;;;;9.82;4.85;;;;;;;15.58;58.72;100283.06;6149745;23;20033;-87
2023/10/06 01:52:30;;;;;;;10.35;5.30;;;;;;;15.31;58.35;100256.28;6149899;23;20389;-86
2023/10/06 01:55:09;;;;;;;10.25;5.22;;;;;;;15.00;59.06;100251.72;6149759;23;20068;-87
2023/10/06 01:57:34;;;;;;;12.02;5.38;;;;;;;15.22;59.21;100281.28;6150274;23;20464;-87
2023/10/06 02:00:00;;;;;;;8.40;4.45;;;;;;;15.04;59.03;100253.41;6149923;23;20040;-86
2023/10/06 02:02:27;;;;;;;10.88;5.20;;;;;;;15.07;59.27;100268.38;6149497;23;20005;-86
2023/10/06 02:04:56;;;;;;;17.02;6.00;;;;;;;15.11;59.54;100286.00;6150085;23;20005;-86
2023/10/06 02:07:22;;;;;;;11.43;5.10;;;;;;;15.07;59.58;100268.38;6149470;23;20020;-86
2023/10/06 02:09:49;;;;;;;13.48;4.88;;;;;;;15.00;60.01;100261.50;6150031;23;20010;-87
2023/10/06 02:12:15;;;;;;;11.30;5.35;;;;;;;15.09;59.83;100237.34;6149706;23;20009;-86
2023/10/06 02:14:41;;;;;;;13.60;5.28;;;;;;;15.17;59.30;100267.25;6149637;23;20053;-86
2023/10/06 02:17:08;;;;;;;14.75;5.70;;;;;;;15.17;59.55;100293.84;6149635;23;20010;-85
2023/10/06 02:19:34;;;;;;;15.48;5.70;;;;;;;14.92;59.88;100258.13;6150057;23;20040;-86
2023/10/06 02:22:00;;;;;;;12.65;5.50;;;;;;;15.03;60.19;100275.56;6268452;22;20004;-86
2023/10/06 02:24:25;;;;;;;19.80;5.93;;;;;;;15.28;60.17;100337.88;6304275;22;20007;-86
2023/10/06 02:27:01;;;;;;;10.13;4.35;;;;;;;14.92;60.49;100287.34;6304496;22;20334;-86
2023/10/06 02:29:27;;;;;;;11.73;5.78;;;;;;;14.95;60.33;100288.16;6304450;22;19999;-86
2023/10/06 02:32:06;;;;;;;19.40;5.75;;;;;;;14.88;60.19;100269.75;6304535;22;20014;-86
2023/10/06 02:34:35;;;;;;;15.32;4.93;;;;;;;15.15;59.73;100300.06;6303528;22;20000;-86
2023/10/06 02:37:06;;;;;;;15.88;6.00;;;;;;;14.84;59.76;100247.69;6303434;22;20010;-86
2023/10/06 02:39:34;;;;;;;10.75;4.35;;;;;;;15.11;59.65;100307.25;6304402;22;20000;-86
2023/10/06 02:42:02;;;;;;;11.30;6.13;;;;;;;14.98;60.22;100288.09;6304013;22;20337;-86
2023/10/06 02:44:29;;;;;;;24.83;5.78;;;;;;;15.10;60.31;100308.16;6303902;22;20042;-86
2023/10/06 02:46:55;;;;;;;11.88;5.60;;;;;;;14.98;60.09;100281.88;6303640;22;20014;-87
2023/10/06 02:49:47;;;;;;;13.52;5.90;;;;;;;14.89;60.39;100268.81;6303721;22;20011;-87
2023/10/06 02:52:22;;;;;;;11.65;6.28;;;;;;;15.05;60.47;100304.75;6302903;22;20004;-86
2023/10/06 02:57:34;;;;;;;12.02;4.88;;;;;;;14.87;60.83;100258.22;6303180;22;20007;-86
2023/10/06 03:00:28;;;;;;;8.57;4.25;;;;;;;14.80;60.30;100260.19;6304116;22;20007;-87
2023/10/06 03:02:45;;;;;;;16.15;6.10;;;;;;;15.07;60.49;100308.22;6303447;22;20006;-86
2023/10/06 03:05:31;;;;;;;9.75;4.85;;;;;;;15.28;60.06;100336.09;6303740;22;20452;-86
2023/10/06 03:07:58;;;;;;;12.68;4.35;;;;;;;14.68;60.60;100271.06;6302754;22;20003;-87
2023/10/06 03:10:27;;;;;;;18.42;5.40;;;;;;;14.84;60.10;100266.28;6304007;22;19999;-88
2023/10/06 03:12:57;;;;;;;9.70;4.30;;;;;;;14.76;60.87;100302.78;6303815;22;20007;-86
2023/10/06 03:18:09;;;;;;;12.00;4.85;;;;;;;14.43;61.69;100282.22;6270433;22;20027;-86
2023/10/06 03:20:46;;;;;;;10.07;5.32;;;;;;;14.50;61.92;100286.47;6271566;22;20034;-87
2023/10/06 03:23:24;;;;;;;9.90;5.13;;;;;;;14.59;62.00;100298.66;6271513;22;20007;-87
2023/10/06 03:25:53;;;;;;;12.52;4.53;;;;;;;14.49;61.97;100283.88;6271917;22;20035;-84
2023/10/06 03:28:20;;;;;;;13.30;5.10;;;;;;;14.42;62.05;100269.84;6269299;22;20011;-85
2023/10/06 03:30:49;;;;;;;23.55;6.07;;;;;;;14.56;62.34;100276.63;6270260;22;20042;-87
2023/10/06 03:33:19;;;;;;;18.73;6.78;;;;;;;14.68;62.47;100290.53;6271385;22;20094;-87
2023/10/06 03:35:45;;;;;;;10.30;4.63;;;;;;;14.64;62.18;100283.56;6270507;22;20008;-85
2023/10/06 03:40:48;;;;;;;12.40;6.63;;;;;;;14.61;61.98;100278.31;6271037;22;20003;-87
2023/10/06 03:43:13;;;;;;;16.88;7.68;;;;;;;15.05;61.01;100320.69;6271307;22;20015;-84
2023/10/06 03:45:40;;;;;;;11.00;5.55;;;;;;;14.44;61.30;100241.50;6270387;22;20402;-87
2023/10/06 03:48:11;;;;;;;27.02;8.27;;;;;;;14.59;61.86;100305.75;6271158;22;20559;-87
2023/10/06 03:50:41;;;;;;;20.98;8.65;;;;;;;14.39;62.70;100283.16;6271782;22;20007;-87
2023/10/06 03:53:09;;;;;;;19.50;8.27;;;;;;;14.29;63.06;100273.69;6272053;22;20004;-87
2023/10/06 03:55:39;;;;;;;13.70;8.15;;;;;;;14.22;63.34;100253.47;6292813;22;20014;-91
2023/10/06 03:58:09;;;;;;;12.18;7.20;;;;;;;14.47;62.85;100275.94;6305500;22;20472;-86
2023/10/06 04:00:38;;;;;;;22.40;8.10;;;;;;;14.74;63.20;100321.41;6305308;22;20078;-89
2023/10/06 04:03:13;;;;;;;14.68;8.07;;;;;;;14.81;62.69;100309.72;6305953;22;20023;-88
2023/10/06 04:05:49;;;;;;;9.45;5.75;;;;;;;14.65;62.73;100292.38;6305911;22;20006;-88
2023/10/06 04:08:16;;;;;;;18.67;7.68;;;;;;;14.47;63.06;100275.03;6304913;22;20358;-87
2023/10/06 04:10:53;;;;;;;13.98;5.95;;;;;;;14.61;63.08;100278.31;6304871;22;20000;-90
2023/10/06 04:13:20;;;;;;;9.55;5.45;;;;;;;14.60;63.33;100302.22;6305705;22;19999;-88
2023/10/06 04:15:49;;;;;;;16.50;5.97;;;;;;;14.46;63.59;100283.94;6304577;22;20007;-88
2023/10/06 04:18:22;;;;;;;11.63;5.60;;;;;;;14.54;63.57;100286.41;6305267;22;20007;-88
2023/10/06 04:20:49;;;;;;;10.48;5.15;;;;;;;14.73;63.44;100311.66;6304334;22;20011;-88
2023/10/06 04:23:18;;;;;;;22.83;4.82;;;;;;;14.74;63.38;100292.19;6304618;22;20015;-88
2023/10/06 04:25:45;;;;;;;8.77;4.97;;;;;;;14.72;62.67;100307.28;6304694;22;20094;-87
2023/10/06 04:28:15;;;;;;;11.43;5.60;;;;;;;15.09;63.13;100367.56;6304422;22;20003;-87
2023/10/06 04:30:43;;;;;;;11.60;5.03;;;;;;;14.95;62.84;100324.47;6304700;22;20035;-87
2023/10/06 04:33:13;;;;;;;17.45;5.70;;;;;;;14.63;63.22;100280.94;6305082;22;19999;-88
2023/10/06 04:35:40;;;;;;;12.75;6.45;;;;;;;14.66;63.07;100294.16;6304751;22;20346;-87
2023/10/06 04:38:09;;;;;;;14.15;5.88;;;;;;;15.00;63.18;100352.69;6304420;22;19999;-87
2023/10/06 04:40:35;;;;;;;16.80;6.57;;;;;;;14.84;62.99;100322.94;6304296;22;20038;-87
2023/10/06 04:43:01;;;;;;;9.75;4.82;;;;;;;14.85;62.62;100313.19;6304639;22;20674;-88
2023/10/06 04:45:31;;;;;;;;;;;;;;;15.20;63.68;100383.25;6304194;22;20034;-90
2023/10/06 04:47:57;;;;;;;17.02;6.43;;;;;;;14.89;63.55;100336.13;6304095;22;19985;-88
2023/10/06 04:50:22;;;;;;;15.48;6.20;;;;;;;14.85;63.46;100323.81;6303872;22;20472;-89
2023/10/06 04:52:48;;;;;;;13.32;5.72;;;;;;;14.67;63.79;100293.22;6304059;22;20034;-89
2023/10/06 04:55:13;;;;;;;;;;;;;;;15.39;63.71;100400.50;6303312;22;20487;-88
2023/10/06 04:57:41;;;;;;;13.25;6.05;;;;;;;15.03;63.84;100360.59;6303782;22;20000;-88
2023/10/06 05:00:14;;;;;;;23.73;7.53;;;;;;;15.01;64.41;100321.66;6304522;22;20085;-88
2023/10/06 05:02:43;;;;;;;13.68;6.63;;;;;;;15.50;63.89;100363.00;6276759;22;20349;-88
2023/10/06 05:05:10;;;;;;;18.45;7.93;;;;;;;15.64;63.55;100340.53;6304048;22;20003;-89
2023/10/06 05:07:37;;;;;;;16.38;6.28;;;;;;;15.66;63.40;100357.31;6303530;22;20400;-89
2023/10/06 05:10:08;;;;;;;12.80;5.22;;;;;;;15.69;63.12;100359.88;6302570;22;20406;-88
2023/10/06 05:12:42;;;;;;;11.75;4.88;;;;;;;15.77;63.08;100352.66;6303253;22;20101;-88
2023/10/06 05:15:08;;;;;;;22.10;6.25;;;;;;;15.67;62.59;100311.19;6302555;22;20511;-91
2023/10/06 05:17:34;;;;;;;15.45;5.57;;;;;;;15.73;62.27;100340.28;6302527;22;20015;-91
2023/10/06 05:20:01;;;;;;;9.18;5.55;;;;;;;15.71;62.38;100358.09;6302481;22;20027;-91
2023/10/06 05:22:26;;;;;;;12.00;5.85;;;;;;;15.78;62.34;100310.94;6303624;22;20000;-90
2023/10/06 05:24:52;;;;;;;15.00;5.90;;;;;;;16.39;62.51;100430.81;6303398;22;20003;-90
2023/10/06 05:27:19;;;;;;;;;;;;;;;16.40;62.23;100411.28;6303707;22;20450;-91
2023/10/06 05:29:46;;;;;;;10.57;4.13;;;;;;;16.03;62.23;100353.72;6274833;22;19910;-92
2023/10/06 05:32:13;;;;;;;14.98;5.88;;;;;;;16.15;61.45;100353.38;6302972;22;20078;-89
2023/10/06 05:34:40;;;;;;;11.90;5.40;;;;;;;16.19;61.68;100347.06;6302486;22;20068;-90
2023/10/06 05:37:12;;;;;;;18.52;5.45;;;;;;;16.41;60.93;100330.50;6302539;22;20014;-93
2023/10/06 05:39:40;;;;;;;12.18;5.22;;;;;;;16.68;60.68;100373.19;6303943;22;20072;-93
2023/10/06 05:42:08;;;;;;;18.27;6.80;;;;;;;16.76;61.06;100384.50;6302523;22;20349;-93
2023/10/06 05:44:36;;;;;;;18.77;5.07;;;;;;;16.31;60.84;100329.84;6301645;22;20477;-91
2023/10/06 05:47:02;;;;;;;13.38;5.88;;;;;;;17.01;60.82;100398.00;6303054;22;19999;-90
2023/10/06 05:49:32;;;;;;;13.90;5.30;;;;;;;17.52;60.08;100413.28;6303070;22;20354;-92
2023/10/06 05:51:58;;;;;;;13.98;4.75;;;;;;;17.28;59.50;100371.41;6275531;22;20073;-90
2023/10/06 05:54:26;;;;;;;9.77;4.40;;;;;;;17.74;59.36;100414.38;6302915;22;20023;-91
2023/10/06 05:56:53;;;;;;;16.30;5.47;;;;;;;17.57;58.83;100378.47;6302430;22;20565;-91
2023/10/06 05:59:22;;;;;;;12.00;5.25;;;;;;;17.71;58.10;100392.19;6302783;22;20007;-91
2023/10/06 06:02:00;;;;;;;23.35;5.03;;;;;;;17.69;58.50;100378.03;6302870;22;20140;-90
2023/10/06 06:04:30;;;;;;;10.55;4.43;;;;;;;17.51;58.55;100362.66;6303025;22;20025;-89
2023/10/06 06:06:57;;;;;;;25.95;6.65;;;;;;;17.82;57.51;100357.16;6303235;22;20009;-89
2023/10/06 06:09:25;;;;;;;12.75;5.57;;;;;;;17.95;57.45;100354.97;6274814;22;20045;-88
2023/10/06 06:11:51;;;;;;;11.32;5.43;;;;;;;18.16;56.17;100380.03;6302715;22;20076;-88
2023/10/06 06:14:20;;;;;;;12.65;4.90;;;;;;;18.11;56.60;100381.13;6302556;22;20035;-88
2023/10/06 06:16:46;;;;;;;12.38;4.30;;;;;;;18.11;56.75;100386.47;6302087;22;20029;-89
2023/10/06 06:19:12;;;;;;;11.98;5.65;;;;;;;18.41;56.15;100353.31;6302706;22;20056;-90
2023/10/06 06:21:40;;;;;;;10.88;6.07;;;;;;;18.60;55.54;100406.06;6302231;22;20048;-89
2023/10/06 06:24:06;;;;;;;8.88;4.78;;;;;;;18.76;54.78;100404.53;6302502;22;20003;-90
2023/10/06 06:26:38;;;;;;;6.57;4.30;;;;;;;18.69;54.60;100364.75;6303029;22;20057;-88
2023/10/06 06:29:05;;;;;;;13.65;6.47;;;;;;;18.54;54.76;100359.06;6302540;22;20081;-89
2023/10/06 06:31:33;;;;;;;13.63;6.38;;;;;;;19.24;54.14;100388.50;6302651;22;20003;-89
2023/10/06 06:34:04;;;;;;;15.55;5.95;;;;;;;19.44;53.52;100390.38;6302544;22;20003;-89
2023/10/06 06:36:31;;;;;;;19.70;8.60;;;;;;;19.42;51.91;100403.81;6301794;22;20018;-89
2023/10/06 06:38:58;;;;;;;15.30;5.93;;;;;;;19.45;53.06;100389.47;6303071;22;20460;-89
2023/10/06 06:41:24;;;;;;;14.10;6.80;;;;;;;19.72;52.69;100434.75;6274889;22;20438;-89
2023/10/06 06:43:55;;;;;;;13.27;6.10;;;;;;;19.36;52.86;100363.09;6301694;22;20080;-90
2023/10/06 06:46:21;;;;;;;16.63;6.25;;;;;;;20.16;51.79;100457.00;6302596;22;20011;-90
2023/10/06 06:48:46;;;;;;;11.25;5.47;;;;;;;19.76;51.68;100362.28;6302249;22;20015;-89
2023/10/06 06:51:12;;;;;;;15.50;5.32;;;;;;;20.02;51.37;100347.81;6301603;22;19999;-91
2023/10/06 06:53:39;;;;;;;27.83;7.20;;;;;;;20.12;51.05;100358.97;6303655;22;20078;-90
2023/10/06 06:56:05;;;;;;;18.05;4.63;;;;;;;20.27;51.00;100370.81;6275704;22;20015;-91
2023/10/06 06:58:32;;;;;;;13.80;5.40;;;;;;;20.13;51.02;100349.16;6304690;22;20010;-89
2023/10/06 07:00:58;;;;;;;19.23;5.93;;;;;;;20.57;50.47;100383.75;6304610;22;20440;-89
2023/10/06 07:03:24;;;;;;;12.63;5.10;;;;;;;20.69;49.75;100380.56;6303973;22;20057;-89
2023/10/06 07:05:50;;;;;;;12.18;5.70;;;;;;;21.04;49.78;100393.28;6303827;22;20434;-91
2023/10/06 07:08:16;;;;;;;15.70;5.13;;;;;;;20.43;49.73;100335.31;6303718;22;20434;-92
2023/10/06 07:10:50;;;;;;;16.25;6.07;;;;;;;20.55;49.87;100330.25;6305161;22;20009;-92
2023/10/06 07:13:17;;;;;;;12.43;5.50;;;;;;;20.37;49.57;100337.34;6302587;22;20007;-93
2023/10/06 07:15:43;;;;;;;11.52;4.50;;;;;;;20.85;49.48;100393.25;6276258;22;19999;-92
2023/10/06 07:18:10;;;;;;;11.43;4.32;;;;;;;21.22;49.58;100424.56;6303896;22;20005;-92
2023/10/06 07:20:36;;;;;;;12.50;5.97;;;;;;;21.65;48.57;100440.44;6304497;22;20010;-92
2023/10/06 07:23:01;;;;;;;16.63;4.57;;;;;;;21.32;48.33;100357.03;6302884;22;20003;-91
2023/10/06 07:25:28;;;;;;;21.85;5.03;;;;;;;21.56;48.24;100338.88;6304139;22;20045;-92
2023/10/06 07:27:55;;;;;;;19.08;4.82;;;;;;;21.89;47.09;100371.22;6302815;22;20007;-93
2023/10/06 07:30:26;;;;;;;11.77;5.20;;;;;;;21.71;46.79;100364.09;6304233;22;20057;-91
2023/10/06 07:32:56;;;;;;;38.05;6.00;;;;;;;21.58;47.41;100396.94;6303693;22;20057;-91
2023/10/06 07:38:10;;;;;;;10.40;4.80;;;;;;;21.38;47.30;100380.88;6303549;22;20560;-90
2023/10/06 07:40:38;;;;;;;17.92;5.65;;;;;;;21.43;47.79;100369.00;6276912;22;20402;-91
2023/10/06 07:43:05;;;;;;;20.35;4.22;;;;;;;22.02;46.80;100351.78;6304380;22;20010;-92
2023/10/06 07:45:32;;;;;;;11.88;4.85;;;;;;;22.59;45.25;100384.59;6302221;22;20007;-92
2023/10/06 07:47:58;;;;;;;15.85;5.32;;;;;;;22.74;45.10;100337.19;6277753;22;20039;-88
2023/10/06 07:50:26;;;;;;;12.52;4.82;;;;;;;22.82;43.43;100331.38;6302312;22;20499;-87
2023/10/06 07:52:52;;;;;;;9.77;4.47;;;;;;;23.75;43.23;100430.13;6303027;22;20010;-91
2023/10/06 07:55:21;;;;;;;11.80;4.82;;;;;;;23.52;42.34;100382.16;6303398;22;20003;-91
2023/10/06 07:57:48;;;;;;;13.75;5.32;;;;;;;23.07;42.95;100347.00;6305419;22;20078;-93
2023/10/06 08:00:26;;;;;;;11.27;5.82;;;;;;;22.40;44.79;100343.50;6275246;22;20094;-90
2023/10/06 08:02:52;;;;;;;22.77;5.75;;;;;;;22.89;44.24;100390.13;6303402;22;20003;-89
2023/10/06 08:05:19;;;;;;;11.30;5.20;;;;;;;22.74;44.30;100320.16;6302814;22;20072;-89
2023/10/06 08:07:44;;;;;;;12.43;3.92;;;;;;;22.96;43.82;100352.97;6275809;22;20413;-88
2023/10/06 08:10:14;;;;;;;10.65;4.05;;;;;;;23.24;42.82;100368.44;6302530;22;20038;-90
2023/10/06 08:12:44;;;;;;;13.82;5.30;;;;;;;23.47;42.34;100339.34;6302386;22;20011;-91
2023/10/06 08:15:22;;;;;;;17.75;4.78;;;;;;;23.14;42.54;100316.13;6276984;22;20007;-92
2023/10/06 08:17:51;;;;;;;12.27;5.13;;;;;;;23.56;42.82;100340.63;6303563;22;20007;-90
2023/10/06 08:20:17;;;;;;;16.60;5.45;;;;;;;24.05;41.67;100324.25;6305732;22;20000;-95
2023/10/06 08:22:46;;;;;;;11.02;4.57;;;;;;;24.19;41.33;100382.69;6279780;22;20090;-93
2023/10/06 08:25:13;;;;;;;18.90;4.85;;;;;;;24.05;42.38;100361.09;6301453;22;20006;-93
2023/10/06 08:27:46;;;;;;;11.30;4.22;;;;;;;24.16;43.10;100320.00;6277125;22;19999;-96
2023/10/06 08:30:16;;;;;;;9.75;4.90;;;;;;;24.49;41.58;100376.38;6276084;22;20007;-96
2023/10/06 08:32:46;;;;;;;11.57;5.00;;;;;;;24.14;42.32;100328.19;6304111;22;20057;-92
2023/10/06 08:35:13;;;;;;;7.22;3.08;;;;;;;23.87;40.79;100374.72;6297100;22;20457;-91
2023/10/06 08:37:42;;;;;;;12.88;4.32;;;;;;;23.86;41.25;100342.47;6303419;22;20003;-95
2023/10/06 08:40:09;;;;;;;16.50;4.05;;;;;;;23.51;40.58;100311.28;6303302;22;20094;-96
2023/10/06 08:42:36;;;;;;;7.07;4.25;;;;;;;23.52;41.20;100366.84;6328562;22;20054;-91
2023/10/06 08:45:06;;;;;;;7.45;3.70;;;;;;;23.63;40.91;100370.75;6304809;22;20030;-92
2023/10/06 08:47:35;;;;;;;13.98;4.43;;;;;;;23.77;42.32;100363.59;6301791;22;20004;-92
2023/10/06 08:50:00;;;;;;;8.10;3.50;;;;;;;23.42;40.99;100341.44;6303757;22;20007;-86
2023/10/06 08:52:29;;;;;;;10.18;4.53;;;;;;;23.81;40.53;100352.66;6302875;22;20413;-88
2023/10/06 08:54:56;;;;;;;10.25;4.68;;;;;;;23.91;40.52;100340.38;6303378;22;20079;-91
2023/10/06 08:57:24;;;;;;;7.95;3.30;;;;;;;24.02;40.20;100302.88;6304354;22;20008;-90
2023/10/06 08:59:50;;;;;;;15.02;5.15;;;;;;;24.05;40.53;100332.34;6303489;22;20003;-92
2023/10/06 09:02:17;;;;;;;7.95;3.75;;;;;;;23.85;40.45;100298.53;6276939;22;20004;-95
2023/10/06 09:04:43;;;;;;;9.35;4.07;;;;;;;24.39;40.89;100319.47;6302162;22;20007;-95
2023/10/06 09:07:12;;;;;;;6.07;3.67;;;;;;;23.94;39.91;100313.25;6303712;22;20007;-92
2023/10/06 09:09:40;;;;;;;5.78;3.00;;;;;;;24.10;39.93;100305.97;6275956;22;20031;-90
2023/10/06 09:12:09;;;;;;;11.23;4.68;;;;;;;24.59;40.26;100336.22;6303624;22;20326;-92
2023/10/06 09:14:49;;;;;;;8.98;3.92;;;;;;;24.63;39.49;100302.72;6276147;22;20099;-93
2023/10/06 09:17:28;;;;;;;11.98;4.25;;;;;;;24.38;39.11;100303.38;6276267;22;20011;-90
2023/10/06 09:19:55;;;;;;;11.98;4.53;;;;;;;24.67;38.83;100347.41;6276459;22;20011;-94
2023/10/06 09:22:24;;;;;;;7.78;3.38;;;;;;;24.38;39.59;100277.28;6303574;22;20064;-90
2023/10/06 09:24:59;;;;;;;9.95;4.55;;;;;;;24.95;39.00;100343.78;6302799;22;20008;-90
2023/10/06 09:27:26;;;;;;;9.73;3.50;;;;;;;24.83;38.46;100323.00;6301357;22;20003;-90
2023/10/06 09:29:59;;;;;;;9.45;3.83;;;;;;;24.90;38.61;100318.06;6301329;22;20093;-87
2023/10/06 09:32:25;;;;;;;11.18;3.92;;;;;;;25.10;38.51;100371.63;6300905;22;20034;-90
2023/10/06 09:34:53;;;;;;;9.27;3.58;;;;;;;25.29;37.77;100347.03;6301318;22;20037;-87
2023/10/06 09:37:22;;;;;;;12.25;4.20;;;;;;;25.15;38.24;100320.91;6303011;22;20007;-88
2023/10/06 09:39:58;;;;;;;11.10;4.90;;;;;;;25.18;37.77;100292.84;6250274;22;20018;-91
2023/10/06 09:42:30;;;;;;;8.00;3.17;;;;;;;25.42;37.84;100341.66;6301203;22;20345;-87
2023/10/06 09:45:15;;;;;;;11.25;3.80;;;;;;;25.21;38.05;100303.44;6302872;22;20446;-90
2023/10/06 09:47:45;;;;;;;;;;;;;;;25.59;39.74;100350.47;6275868;22;20007;-86
2023/10/06 09:50:14;;;;;;;15.18;4.18;;;;;;;25.63;38.22;100306.09;6303133;22;19917;-89
2023/10/06 09:52:42;;;;;;;10.00;4.43;;;;;;;25.29;37.56;100305.66;6302695;22;20022;-88
2023/10/06 09:55:09;;;;;;;5.05;2.85;;;;;;;25.31;38.09;100301.88;6276058;22;20357;-88
2023/10/06 09:57:35;;;;;;;6.00;3.70;;;;;;;25.60;37.02;100307.16;6303075;22;20015;-89
2023/10/06 10:00:01;;;;;;;8.68;3.72;;;;;;;25.36;37.96;100272.75;6303367;22;19999;-91
2023/10/06 10:02:32;;;;;;;9.25;4.30;;;;;;;25.80;37.78;100259.84;6300840;22;20008;-88
2023/10/06 10:05:02;;;;;;;13.77;4.25;;;;;;;25.79;36.67;100258.09;6303439;22;20177;-89
2023/10/06 10:07:30;;;;;;;6.88;3.30;;;;;;;26.07;37.41;100321.06;6302300;22;20026;-88
2023/10/06 10:09:57;;;;;;;7.20;3.20;;;;;;;26.11;37.32;100278.50;6303034;22;20011;-87
2023/10/06 10:12:52;;;;;;;10.20;3.95;;;;;;;26.30;36.81;100334.81;6300875;22;20091;-87
2023/10/06 10:15:19;;;;;;;10.82;3.58;;;;;;;26.59;37.30;100313.81;6238610;23;20043;-86
2023/10/06 10:17:54;;;;;;;19.75;5.60;;;;;;;26.12;36.64;100248.66;6238148;23;20008;-86
2023/10/06 10:20:25;;;;;;;8.98;3.70;;;;;;;26.07;36.69;100243.56;6238749;23;20036;-88
2023/10/06 10:22:55;;;;;;;10.45;4.47;;;;;;;26.91;36.52;100297.06;6238469;23;20086;-88
2023/10/06 10:25:23;;;;;;;11.20;3.95;;;;;;;26.40;37.14;100241.22;6238525;23;20008;-86
2023/10/06 10:28:27;;;;;;;9.88;4.22;;;;;;;26.50;36.56;100292.81;6239675;23;20004;-86
2023/10/06 10:31:00;;;;;;;9.10;3.63;;;;;;;26.09;36.07;100246.16;6241563;23;20154;-86
2023/10/06 10:33:33;;;;;;;10.25;4.50;;;;;;;26.01;35.90;100241.31;6240820;23;20101;-85
2023/10/06 10:36:22;;;;;;;9.13;3.95;;;;;;;26.58;36.15;100248.00;6240073;23;20008;-87
2023/10/06 10:39:01;;;;;;;9.63;4.50;;;;;;;26.30;35.12;100207.72;6150377;23;20295;-87
2023/10/06 10:41:30;;;;;;;5.95;3.85;;;;;;;26.54;34.36;100229.41;6150264;23;20474;-87
2023/10/06 10:44:01;;;;;;;7.70;3.25;;;;;;;26.54;36.43;100219.47;6151027;23;20040;-87
2023/10/06 10:46:41;;;;;;;8.40;3.17;;;;;;;26.69;35.39;100239.13;6150401;23;20057;-86
2023/10/06 10:49:09;;;;;;;7.10;2.88;;;;;;;26.37;34.48;100190.06;6150113;23;20128;-87
2023/10/06 10:51:55;;;;;;;11.25;3.55;;;;;;;26.62;35.12;100208.94;6163784;23;20009;-86
2023/10/06 10:54:27;;;;;;;7.95;3.97;;;;;;;26.85;34.58;100202.78;6179648;23;20088;-86
2023/10/06 10:57:01;;;;;;;7.93;4.10;;;;;;;27.06;34.33;100212.00;6179903;23;20500;-88
2023/10/06 11:00:11;;;;;;;7.35;3.67;;;;;;;26.82;33.46;100212.03;6209394;23;20008;-88
2023/10/06 11:03:01;;;;;;;6.75;3.22;;;;;;;26.66;33.58;100179.81;6209680;23;20009;-88
2023/10/06 11:05:31;;;;;;;9.25;4.60;;;;;;;26.51;33.82;100180.94;6210002;23;20015;-87
2023/10/06 11:08:05;;;;;;;10.82;3.42;;;;;;;26.54;34.32;100169.88;6209506;23;20086;-87
2023/10/06 11:10:35;;;;;;;10.60;3.03;;;;;;;26.82;33.93;100157.03;6210046;23;20009;-87
2023/10/06 11:13:18;;;;;;;12.60;4.30;;;;;;;26.79;35.15;100198.72;6209621;23;20470;-87
2023/10/06 11:15:45;;;;;;;7.97;4.00;;;;;;;26.64;34.58;100173.63;6240143;22;20077;-86
2023/10/06 11:18:13;;;;;;;12.90;3.50;;;;;;;27.00;35.08;100168.31;6273841;22;20061;-87
2023/10/06 11:20:39;;;;;;;6.22;3.10;;;;;;;26.82;34.63;100193.09;6273844;22;20038;-90
2023/10/06 11:23:05;;;;;;;9.73;4.07;;;;;;;26.93;33.91;100220.19;6273542;22;20034;-87
2023/10/06 11:25:45;;;;;;;11.27;4.00;;;;;;;26.57;35.06;100154.31;6273006;22;20035;-89
2023/10/06 11:28:14;;;;;;;8.63;3.78;;;;;;;26.49;34.36;100153.16;6273918;22;20087;-88
2023/10/06 11:30:41;;;;;;;6.95;3.47;;;;;;;27.13;34.40;100215.13;6273224;22;20003;-89
2023/10/06 11:33:08;;;;;;;8.32;4.00;;;;;;;27.01;34.46;100178.16;6273866;22;20338;-90
2023/10/06 11:35:36;;;;;;;9.00;4.28;;;;;;;27.21;34.22;100163.09;6273105;22;20018;-90
2023/10/06 11:38:04;;;;;;;16.38;4.75;;;;;;;27.70;33.62;100172.81;6270640;22;20019;-89
2023/10/06 11:40:31;;;;;;;10.55;4.32;;;;;;;27.62;33.27;100153.59;6272493;22;20003;-86
2023/10/06 11:43:12;;;;;;;10.52;4.32;;;;;;;27.47;33.72;100150.25;6272564;22;20004;-89
2023/10/06 11:45:39;;;;;;;9.30;3.97;;;;;;;27.23;33.82;100153.00;6246183;22;20018;-90
2023/10/06 11:48:05;;;;;;;7.55;3.97;;;;;;;27.20;33.71;100137.84;6251181;22;20016;-92